Terminal Aerodrome Forecast
Issued by NWS Caribou, ME

Home | Current Version | Previous Version | Text Only | Print | Product List | Glossary On
Versions: 1 2 3 4 5 6 7 8 9 10 11 12 13 14 15 16
000
FTUS41 KCAR 310640 AAA
TAFCAR
TAF AMD
KCAR 310640Z 3107/0106 18006KT 3SM BR SCT007 BKN025
     FM310800 18005KT 2SM BR SCT003 BKN015
     FM311200 20005KT 6SM BR BKN025
     FM311400 21006KT P6SM BKN035
     FM311600 25007KT P6SM BKN120=

USA.gov is the U.S. government's official web portal to all federal, state and local government web resources and services.